Time;durP1;ratioP1;P1;durP2;ratioP2;P2;SDS_P1;SDS_P2;PMS_P1;PMS_P2;Temp;Humidity;BMP_temperature;BMP_pressure;BME280_temperature;BME280_humidity;BME280_pressure;Samples;Min_cycle;Max_cycle;Signal;HPM_P1;HPM_P2
2021/11/06 00:02:42;;;;;;;1.20;1.03;;;;;;;5.89;82.41;100586.19;6335812;28;20496;-73
2021/11/06 00:05:48;;;;;;;1.00;1.00;;;;;;;5.84;81.99;100588.59;6834157;22;20221;-74
2021/11/06 00:08:52;;;;;;;1.00;1.00;;;;;;;5.74;81.94;100588.09;6284774;28;20207;-74
2021/11/06 00:11:56;;;;;;;1.03;1.03;;;;;;;5.81;81.89;100582.72;6286746;28;20194;-74
2021/11/06 00:15:01;;;;;;;1.00;1.00;;;;;;;5.85;81.70;100593.03;6286754;28;20198;-74
2021/11/06 00:18:05;;;;;;;1.00;1.00;;;;;;;5.76;81.65;100588.72;6285883;28;20375;-74
2021/11/06 00:21:11;;;;;;;1.30;1.20;;;;;;;5.62;82.34;100589.63;6286553;28;20188;-74
2021/11/06 00:24:15;;;;;;;0.90;0.90;;;;;;;5.62;81.73;100586.91;6291310;28;20187;-74
2021/11/06 00:27:19;;;;;;;1.00;1.00;;;;;;;5.59;81.90;100590.00;6291288;28;20287;-74
2021/11/06 00:30:23;;;;;;;1.00;1.00;;;;;;;5.55;81.67;100581.41;6291518;28;20184;-74
2021/11/06 00:33:27;;;;;;;1.10;1.10;;;;;;;5.51;81.67;100595.50;6291522;28;20195;-74
2021/11/06 00:36:33;;;;;;;1.00;1.00;;;;;;;5.54;81.75;100597.84;6290953;28;20198;-75
2021/11/06 00:39:37;;;;;;;2.30;0.97;;;;;;;5.51;81.86;100603.63;6290117;28;20471;-74
2021/11/06 00:42:42;;;;;;;0.93;0.93;;;;;;;5.37;82.19;100599.06;6290967;28;20262;-74
2021/11/06 00:45:46;;;;;;;0.93;0.93;;;;;;;5.33;82.66;100600.50;6289981;28;20403;-74
2021/11/06 00:48:50;;;;;;;1.10;1.10;;;;;;;5.43;81.64;100603.75;6291138;28;20192;-74
2021/11/06 00:51:56;;;;;;;1.00;1.00;;;;;;;5.29;82.56;100600.00;6289683;28;20210;-74
2021/11/06 00:55:00;;;;;;;1.00;1.00;;;;;;;5.15;83.00;100603.59;6291019;28;20230;-74
2021/11/06 00:58:04;;;;;;;1.03;1.03;;;;;;;5.17;82.45;100606.09;6289632;28;20249;-74
2021/11/06 01:01:09;;;;;;;1.10;1.10;;;;;;;5.35;81.72;100604.69;6290908;28;20257;-74
2021/11/06 01:04:13;;;;;;;0.87;0.87;;;;;;;5.32;81.99;100615.88;6289408;28;20191;-74
2021/11/06 01:07:19;;;;;;;1.03;1.03;;;;;;;5.11;81.77;100617.69;6289693;28;20434;-74
2021/11/06 01:10:23;;;;;;;0.90;0.90;;;;;;;5.15;81.82;100616.28;6290708;28;20192;-75
2021/11/06 01:13:27;;;;;;;1.73;0.97;;;;;;;5.15;81.73;100629.78;6290211;28;20259;-74
2021/11/06 01:16:33;;;;;;;0.90;0.90;;;;;;;5.05;82.42;100620.09;6289482;28;20191;-74
2021/11/06 01:19:37;;;;;;;1.00;1.00;;;;;;;5.01;82.98;100618.78;6290010;28;20251;-74
2021/11/06 01:22:44;;;;;;;1.00;1.00;;;;;;;4.94;81.97;100617.84;6288980;28;20507;-75
2021/11/06 01:25:48;;;;;;;2.67;0.90;;;;;;;5.23;81.08;100622.44;6288864;28;20211;-74
2021/11/06 01:28:53;;;;;;;1.10;1.10;;;;;;;5.07;82.09;100622.63;6290151;28;20198;-74
2021/11/06 01:31:57;;;;;;;0.97;0.97;;;;;;;5.06;81.71;100621.75;6289898;28;20187;-75
2021/11/06 01:35:01;;;;;;;1.20;1.20;;;;;;;5.02;82.70;100615.06;6289087;28;20249;-75
2021/11/06 01:38:07;;;;;;;0.83;0.83;;;;;;;4.89;82.98;100614.88;6290000;28;20198;-74
2021/11/06 01:41:13;;;;;;;1.00;1.00;;;;;;;5.00;82.50;100617.13;6288554;28;20548;-74
2021/11/06 01:44:17;;;;;;;0.90;0.90;;;;;;;5.18;81.88;100616.75;6288613;28;20186;-74
2021/11/06 01:47:21;;;;;;;0.80;0.80;;;;;;;5.05;82.42;100624.66;6288296;28;20524;-74
2021/11/06 01:50:25;;;;;;;0.97;0.97;;;;;;;4.89;83.66;100604.06;6289245;28;20196;-74
2021/11/06 01:53:31;;;;;;;0.90;0.90;;;;;;;4.91;83.55;100607.41;6288170;28;20554;-73
2021/11/06 01:56:36;;;;;;;1.00;1.00;;;;;;;4.89;83.48;100605.91;6288666;28;20190;-72
2021/11/06 01:59:40;;;;;;;1.30;1.30;;;;;;;4.77;84.34;100602.84;6289386;28;20187;-72
2021/11/06 02:02:44;;;;;;;1.20;1.03;;;;;;;4.88;83.79;100606.94;6289392;28;20186;-72
2021/11/06 02:05:49;;;;;;;1.10;1.10;;;;;;;4.99;83.61;100592.97;6288243;28;20257;-72
2021/11/06 02:08:55;;;;;;;1.00;1.00;;;;;;;4.85;83.51;100589.22;6288335;28;20310;-73
2021/11/06 02:11:59;;;;;;;1.00;1.00;;;;;;;4.80;83.86;100591.63;6289180;28;20217;-72
2021/11/06 02:15:05;;;;;;;1.23;1.10;;;;;;;4.84;84.24;100579.44;6288397;28;20187;-72
2021/11/06 02:18:16;;;;;;;1.80;1.10;;;;;;;4.77;84.31;100577.69;6287919;28;20372;-72
2021/11/06 02:21:22;;;;;;;0.80;0.80;;;;;;;4.64;85.06;100581.03;6288923;28;20261;-72
2021/11/06 02:24:26;;;;;;;1.20;1.20;;;;;;;4.62;84.78;100577.69;6288587;28;20282;-73
2021/11/06 02:27:30;;;;;;;1.07;1.00;;;;;;;4.70;85.07;100577.56;6287140;28;20540;-72
2021/11/06 02:30:36;;;;;;;1.10;1.10;;;;;;;4.61;85.17;100573.28;6288407;28;20187;-73
2021/11/06 02:33:40;;;;;;;1.07;1.07;;;;;;;4.63;85.21;100565.81;6288500;28;20187;-74
2021/11/06 02:36:46;;;;;;;1.40;1.40;;;;;;;4.66;84.03;100581.69;6287417;28;20191;-73
2021/11/06 02:39:50;;;;;;;1.90;0.97;;;;;;;4.62;83.99;100574.97;6288157;28;20258;-73
2021/11/06 02:42:55;;;;;;;1.00;1.00;;;;;;;4.67;83.67;100577.97;6287701;28;20257;-73
2021/11/06 02:45:59;;;;;;;1.00;1.00;;;;;;;4.71;83.60;100578.41;6288130;28;20202;-73
2021/11/06 02:49:04;;;;;;;0.93;0.93;;;;;;;4.72;83.38;100575.53;6288177;28;20285;-73
2021/11/06 02:52:12;;;;;;;1.10;1.10;;;;;;;4.45;84.59;100568.03;6287784;28;20190;-73
2021/11/06 02:55:18;;;;;;;1.10;1.10;;;;;;;4.51;83.77;100567.31;6287527;28;20228;-73
2021/11/06 02:58:22;;;;;;;3.50;1.13;;;;;;;4.39;84.22;100579.59;6287609;28;20198;-73
2021/11/06 03:01:27;;;;;;;1.10;1.10;;;;;;;4.61;84.45;100573.28;6286734;28;20382;-76
2021/11/06 03:04:35;;;;;;;1.20;1.20;;;;;;;4.76;82.80;100571.44;6286633;28;20209;-73
2021/11/06 03:07:42;;;;;;;1.30;1.20;;;;;;;4.66;84.20;100573.56;6287239;28;20242;-72
2021/11/06 03:10:46;;;;;;;1.00;1.00;;;;;;;4.63;84.52;100571.22;6287486;28;20191;-73
2021/11/06 03:13:50;;;;;;;1.40;1.10;;;;;;;4.68;84.13;100563.41;6286468;28;20194;-73
2021/11/06 03:16:54;;;;;;;1.00;1.00;;;;;;;4.69;84.16;100559.69;6287771;28;20254;-73
2021/11/06 03:19:58;;;;;;;1.10;1.10;;;;;;;4.74;83.42;100546.47;6287750;28;20190;-72
2021/11/06 03:23:04;;;;;;;0.90;0.90;;;;;;;4.87;83.22;100535.84;6286347;28;20197;-72
2021/11/06 03:26:09;;;;;;;1.00;1.00;;;;;;;4.81;83.49;100541.97;6286351;28;20493;-73
2021/11/06 03:29:14;;;;;;;1.67;1.00;;;;;;;5.00;82.70;100546.81;6287493;28;20215;-74
2021/11/06 03:32:18;;;;;;;1.10;1.00;;;;;;;5.00;82.83;100546.81;6287617;28;20223;-73
2021/11/06 03:35:23;;;;;;;0.90;0.90;;;;;;;5.12;82.70;100549.03;6287245;28;20262;-73
2021/11/06 03:38:34;;;;;;;1.00;1.00;;;;;;;5.12;82.84;100546.31;6286132;28;20386;-73
2021/11/06 03:41:38;;;;;;;1.00;1.00;;;;;;;5.04;83.00;100548.13;6286284;28;20471;-73
2021/11/06 03:44:43;;;;;;;1.10;1.10;;;;;;;5.12;82.80;100540.91;6287151;28;20257;-73
2021/11/06 03:47:47;;;;;;;1.20;1.10;;;;;;;5.20;82.17;100551.63;6286969;28;20209;-73
2021/11/06 03:50:51;;;;;;;1.10;1.10;;;;;;;5.23;81.82;100556.66;6287446;28;20195;-73
2021/11/06 03:53:57;;;;;;;1.00;1.00;;;;;;;4.99;82.99;100558.66;6286431;28;20217;-73
2021/11/06 03:57:01;;;;;;;0.97;0.97;;;;;;;5.11;82.57;100558.19;6287412;28;20456;-73
2021/11/06 04:00:07;;;;;;;1.00;1.00;;;;;;;5.01;83.54;100551.19;6292212;28;20187;-73
2021/11/06 04:03:16;;;;;;;1.00;1.00;;;;;;;5.13;82.90;100553.44;6291838;28;20186;-73
2021/11/06 04:06:21;;;;;;;1.30;1.20;;;;;;;5.16;83.09;100540.38;6291054;28;20564;-74
2021/11/06 04:09:26;;;;;;;1.07;1.03;;;;;;;5.08;82.87;100544.00;6291593;28;20210;-73
2021/11/06 04:12:31;;;;;;;0.90;0.90;;;;;;;5.12;82.56;100539.06;6291880;28;20187;-73
2021/11/06 04:15:35;;;;;;;1.20;1.20;;;;;;;5.17;82.77;100530.38;6290502;28;20524;-73
2021/11/06 04:18:41;;;;;;;1.67;1.17;;;;;;;5.24;82.55;100515.09;6290807;28;20191;-73
2021/11/06 04:21:45;;;;;;;1.30;1.20;;;;;;;5.46;80.40;100514.06;6291791;28;20198;-73
2021/11/06 04:24:51;;;;;;;2.77;1.03;;;;;;;5.41;81.98;100503.00;6290304;28;20438;-74
2021/11/06 04:27:55;;;;;;;2.53;1.30;;;;;;;5.38;82.18;100500.66;6291309;28;20216;-73
2021/11/06 04:30:59;;;;;;;1.30;1.30;;;;;;;5.36;82.22;100491.91;6290157;28;20210;-74
2021/11/06 04:34:05;;;;;;;1.30;1.30;;;;;;;5.46;82.00;100487.03;6290058;28;20499;-73
2021/11/06 04:37:10;;;;;;;1.40;1.30;;;;;;;5.57;81.49;100478.41;6290973;28;20259;-74
2021/11/06 04:40:16;;;;;;;0.97;0.97;;;;;;;5.47;82.06;100477.88;6290651;28;20250;-73
2021/11/06 04:43:21;;;;;;;1.20;1.20;;;;;;;5.40;82.51;100476.94;6289855;28;20192;-73
2021/11/06 04:46:25;;;;;;;1.30;1.30;;;;;;;5.49;82.52;100467.69;6291041;28;20191;-73
2021/11/06 04:49:29;;;;;;;1.10;1.10;;;;;;;5.53;82.68;100472.53;6290924;28;20217;-74
2021/11/06 04:52:35;;;;;;;1.30;1.00;;;;;;;5.49;82.68;100465.00;6290042;28;20193;-73
2021/11/06 04:55:41;;;;;;;1.20;1.20;;;;;;;5.55;82.58;100466.91;6290975;28;20220;-73
2021/11/06 04:58:45;;;;;;;1.77;1.37;;;;;;;5.42;82.76;100469.47;6290373;28;20293;-73
2021/11/06 05:01:50;;;;;;;1.40;1.40;;;;;;;5.51;82.69;100471.03;6289475;28;20531;-73
2021/11/06 05:04:54;;;;;;;1.47;1.47;;;;;;;5.40;83.53;100474.25;6289342;28;20487;-73
2021/11/06 05:07:58;;;;;;;1.53;1.10;;;;;;;5.37;83.84;100477.34;6288622;28;20416;-73
2021/11/06 05:11:04;;;;;;;1.10;1.10;;;;;;;5.39;83.51;100476.09;6290486;28;20218;-74
2021/11/06 05:14:09;;;;;;;1.20;1.20;;;;;;;5.45;82.88;100477.22;6290485;28;20250;-73
2021/11/06 05:17:14;;;;;;;1.10;1.10;;;;;;;5.46;83.16;100484.31;6290431;28;20189;-73
2021/11/06 05:20:18;;;;;;;1.00;1.00;;;;;;;5.38;83.53;100487.13;6290318;28;20198;-73
2021/11/06 05:23:23;;;;;;;1.10;1.10;;;;;;;5.43;83.20;100476.56;6289206;28;20224;-73
2021/11/06 05:26:31;;;;;;;1.73;1.17;;;;;;;5.46;83.36;100481.59;6289933;28;20251;-73
2021/11/06 05:29:35;;;;;;;0.90;0.90;;;;;;;5.51;83.49;100485.41;6290547;28;20249;-73
2021/11/06 05:32:40;;;;;;;1.20;1.20;;;;;;;5.43;83.89;100492.81;6288745;28;20192;-73
2021/11/06 05:35:44;;;;;;;1.10;1.10;;;;;;;5.40;83.56;100498.59;6289746;28;20194;-73
2021/11/06 05:38:48;;;;;;;1.20;1.20;;;;;;;5.36;84.49;100497.31;6290086;28;20265;-73
2021/11/06 05:41:54;;;;;;;1.50;1.10;;;;;;;5.37;84.91;100496.28;6288704;28;20474;-73
2021/11/06 05:44:58;;;;;;;1.00;1.00;;;;;;;5.18;84.38;100499.59;6288454;28;20440;-73
2021/11/06 05:48:02;;;;;;;1.10;1.10;;;;;;;5.26;84.81;100494.09;6288609;28;20219;-73
2021/11/06 05:51:09;;;;;;;2.00;1.03;;;;;;;5.25;84.20;100505.91;6289635;28;20188;-74
2021/11/06 05:54:14;;;;;;;1.10;1.10;;;;;;;5.25;85.33;100495.09;6288098;28;20209;-73
2021/11/06 05:57:20;;;;;;;0.90;0.90;;;;;;;5.26;84.50;100502.19;6289559;28;20217;-74
2021/11/06 06:00:24;;;;;;;0.80;0.80;;;;;;;5.21;85.02;100493.81;6288115;28;20482;-74
2021/11/06 06:03:28;;;;;;;1.10;0.80;;;;;;;5.16;85.42;100507.91;6288197;28;20199;-73
2021/11/06 06:06:33;;;;;;;0.90;0.90;;;;;;;5.27;85.80;100503.84;6288130;28;20249;-73
2021/11/06 06:09:37;;;;;;;1.00;1.00;;;;;;;5.27;86.00;100506.56;6289008;28;20280;-73
2021/11/06 06:12:44;;;;;;;2.83;1.00;;;;;;;5.21;86.07;100504.63;6288647;28;20188;-73
2021/11/06 06:15:48;;;;;;;2.30;0.97;;;;;;;5.21;86.58;100504.63;6287977;28;20202;-73
2021/11/06 06:18:53;;;;;;;1.03;1.03;;;;;;;5.29;86.22;100518.06;6287324;28;20198;-73
2021/11/06 06:21:57;;;;;;;1.00;1.00;;;;;;;5.27;86.44;100509.28;6288409;28;20273;-74
2021/11/06 06:25:01;;;;;;;1.10;1.10;;;;;;;5.28;86.90;100516.38;6288752;28;20239;-73
2021/11/06 06:28:08;;;;;;;0.83;0.83;;;;;;;5.28;87.44;100521.78;6288355;28;20187;-73
2021/11/06 06:31:12;;;;;;;1.10;1.10;;;;;;;5.24;87.92;100515.09;6287540;28;20375;-74
2021/11/06 06:34:16;;;;;;;1.00;1.00;;;;;;;5.08;88.65;100516.94;6287154;28;20479;-73
2021/11/06 06:37:20;;;;;;;1.20;1.10;;;;;;;5.13;88.56;100512.88;6288117;28;20222;-73
2021/11/06 06:40:25;;;;;;;0.90;0.90;;;;;;;5.21;87.81;100510.06;6287379;28;20213;-74
2021/11/06 06:43:30;;;;;;;0.97;0.97;;;;;;;5.22;87.61;100517.13;6287180;28;20186;-73
2021/11/06 06:46:35;;;;;;;1.40;1.20;;;;;;;5.12;88.61;100527.41;6286850;28;20383;-74
2021/11/06 06:49:39;;;;;;;1.10;1.10;;;;;;;5.17;89.19;100516.84;6287194;28;20236;-74
2021/11/06 06:52:43;;;;;;;1.07;1.07;;;;;;;5.16;88.66;100526.00;6287069;28;20349;-73
2021/11/06 06:55:48;;;;;;;0.90;0.90;;;;;;;5.16;89.26;100523.31;6287037;28;20193;-73
2021/11/06 06:58:54;;;;;;;1.30;1.20;;;;;;;5.23;89.07;100519.66;6286525;28;20477;-73
2021/11/06 07:01:58;;;;;;;1.10;1.10;;;;;;;5.28;89.12;100511.81;6286605;28;20412;-73
2021/11/06 07:05:04;;;;;;;1.13;1.13;;;;;;;5.28;89.00;100521.78;6286869;28;20193;-73
2021/11/06 07:08:10;;;;;;;1.40;1.30;;;;;;;5.26;89.98;100523.84;6286885;28;20305;-74
2021/11/06 07:11:14;;;;;;;1.30;1.30;;;;;;;5.32;89.98;100533.88;6286482;28;20559;-73
2021/11/06 07:14:21;;;;;;;1.10;1.10;;;;;;;5.27;89.99;100533.63;6286583;28;20188;-74
2021/11/06 07:17:25;;;;;;;5.80;1.20;;;;;;;5.40;90.70;100536.47;6287647;28;20187;-74
2021/11/06 07:20:29;;;;;;;3.00;1.10;;;;;;;5.34;91.14;100531.84;6287658;28;20260;-75
2021/11/06 07:23:33;;;;;;;1.10;1.10;;;;;;;5.47;90.78;100532.81;6287720;28;20185;-74
2021/11/06 07:26:37;;;;;;;1.23;1.23;;;;;;;5.50;91.21;100531.59;6286239;28;20188;-74
2021/11/06 07:29:43;;;;;;;2.03;1.00;;;;;;;5.54;91.27;100516.66;6286095;28;20533;-74
2021/11/06 07:32:47;;;;;;;3.93;1.20;;;;;;;5.46;93.41;100530.31;6286534;28;20223;-74
2021/11/06 07:35:52;;;;;;;1.00;1.00;;;;;;;5.56;92.64;100541.66;6286062;28;20544;-74
2021/11/06 07:38:56;;;;;;;0.80;0.80;;;;;;;5.77;91.91;100555.22;6287088;28;20194;-75
2021/11/06 07:42:00;;;;;;;2.00;1.10;;;;;;;5.85;91.43;100547.00;6286109;28;20374;-75
2021/11/06 07:45:08;;;;;;;0.93;0.93;;;;;;;5.91;92.05;100548.91;6287102;28;20195;-74
2021/11/06 07:48:13;;;;;;;1.00;1.00;;;;;;;5.98;91.23;100557.13;6286565;28;20195;-74
2021/11/06 07:51:18;;;;;;;1.30;1.30;;;;;;;5.92;91.86;100553.31;6287082;28;20280;-74
2021/11/06 07:54:22;;;;;;;1.17;1.17;;;;;;;5.98;91.75;100563.38;6287054;28;20187;-74
2021/11/06 07:57:26;;;;;;;1.00;1.00;;;;;;;6.00;91.25;100561.31;6286843;28;20254;-74
2021/11/06 08:00:34;;;;;;;3.60;1.10;;;;;;;5.92;91.51;100568.72;6285747;28;20224;-74
2021/11/06 08:03:39;;;;;;;1.00;1.00;;;;;;;5.98;91.53;100576.91;6286711;28;20199;-74
2021/11/06 08:06:43;;;;;;;0.97;0.97;;;;;;;6.12;90.63;100576.00;6285943;28;20237;-74
2021/11/06 08:09:47;;;;;;;1.70;1.27;;;;;;;6.18;89.49;100587.94;6285389;28;20211;-74
2021/11/06 08:12:51;;;;;;;1.10;1.00;;;;;;;6.14;89.43;100589.34;6285549;28;20629;-74
2021/11/06 08:15:57;;;;;;;1.30;1.20;;;;;;;6.09;89.94;100598.06;6285666;28;20354;-74
2021/11/06 08:19:02;;;;;;;3.13;1.10;;;;;;;6.20;88.95;100610.25;6286543;28;20379;-74
2021/11/06 08:22:08;;;;;;;1.00;1.00;;;;;;;6.14;89.25;100602.88;6286887;28;20270;-74
2021/11/06 08:25:15;;;;;;;2.87;1.07;;;;;;;6.13;89.02;100618.31;6285353;28;20540;-74
2021/11/06 08:28:20;;;;;;;2.40;1.10;;;;;;;6.21;88.49;100606.50;6286562;28;20188;-74
2021/11/06 08:31:25;;;;;;;1.00;1.00;;;;;;;6.23;87.84;100604.44;6286428;28;20277;-74
2021/11/06 08:34:33;;;;;;;1.60;1.10;;;;;;;6.30;86.69;100611.59;6285398;28;20188;-74
2021/11/06 08:37:37;;;;;;;0.97;0.97;;;;;;;6.37;86.34;100637.91;6285246;28;20384;-74
2021/11/06 08:40:44;;;;;;;1.23;1.00;;;;;;;6.14;87.16;100641.63;6285710;28;20255;-74
2021/11/06 08:43:48;;;;;;;2.50;1.00;;;;;;;6.35;86.33;100639.97;6289033;28;20219;-74
2021/11/06 08:46:55;;;;;;;2.00;1.17;;;;;;;6.28;86.04;100629.91;6289647;28;20484;-74
2021/11/06 08:50:00;;;;;;;0.87;0.87;;;;;;;6.28;85.47;100635.34;6290580;28;20279;-74
2021/11/06 08:53:04;;;;;;;0.77;0.77;;;;;;;6.42;84.49;100652.53;6290403;28;20219;-74
2021/11/06 08:56:10;;;;;;;1.20;1.00;;;;;;;6.39;84.72;100649.41;6290435;28;20184;-74
2021/11/06 08:59:15;;;;;;;0.90;0.90;;;;;;;6.34;84.41;100654.56;6290655;28;20186;-74
2021/11/06 09:02:21;;;;;;;0.80;0.80;;;;;;;6.40;83.18;100656.47;6290684;28;20194;-74
2021/11/06 09:05:25;;;;;;;1.00;1.00;;;;;;;6.45;83.08;100667.56;6289130;28;20194;-74
2021/11/06 09:08:49;;;;;;;1.13;0.97;;;;;;;6.41;82.95;100671.72;6290554;28;20327;-74
2021/11/06 09:11:54;;;;;;;0.90;0.90;;;;;;;6.47;82.15;100666.34;6290468;28;20222;-73
2021/11/06 09:14:58;;;;;;;0.83;0.80;;;;;;;6.48;82.03;100678.03;6289088;28;20184;-73
2021/11/06 09:18:04;;;;;;;1.00;1.00;;;;;;;6.46;81.93;100685.53;6288809;28;20371;-73
2021/11/06 09:21:12;;;;;;;0.80;0.80;;;;;;;6.48;81.53;100683.44;6288886;28;20189;-73
2021/11/06 09:24:18;;;;;;;0.90;0.90;;;;;;;6.56;80.43;100686.03;6288837;28;20537;-73
2021/11/06 09:27:22;;;;;;;0.83;0.83;;;;;;;6.45;80.01;100684.66;6289642;28;20188;-74
2021/11/06 09:30:26;;;;;;;1.80;0.80;;;;;;;6.46;79.47;100696.34;6288573;28;20220;-73
2021/11/06 09:33:32;;;;;;;1.20;1.20;;;;;;;6.51;78.99;100693.91;6289844;28;20187;-75
2021/11/06 09:36:37;;;;;;;1.00;1.00;;;;;;;6.63;79.10;100697.75;6288458;28;20188;-73
2021/11/06 09:39:41;;;;;;;0.90;0.90;;;;;;;6.53;78.33;100708.09;6289446;28;20257;-73
2021/11/06 09:42:45;;;;;;;1.00;1.00;;;;;;;6.63;78.10;100708.59;6288066;28;20475;-73
2021/11/06 09:45:50;;;;;;;2.80;1.00;;;;;;;6.75;77.29;100704.34;6289457;28;20269;-73
2021/11/06 09:48:55;;;;;;;1.10;1.10;;;;;;;6.74;76.49;100708.94;6289450;28;20225;-74
2021/11/06 09:52:00;;;;;;;0.77;0.77;;;;;;;6.79;76.23;100714.59;6288822;28;20222;-73
2021/11/06 09:55:05;;;;;;;1.00;1.00;;;;;;;6.75;75.62;100734.19;6286862;28;20432;-74
2021/11/06 09:58:10;;;;;;;1.40;0.80;;;;;;;6.70;77.21;100720.38;6288682;28;20194;-73
2021/11/06 10:01:14;;;;;;;0.90;0.90;;;;;;;6.80;76.54;100726.31;6288883;28;20194;-74
2021/11/06 10:04:20;;;;;;;1.03;1.03;;;;;;;6.87;75.33;100727.19;6288792;28;20191;-73
2021/11/06 10:07:26;;;;;;;1.10;1.10;;;;;;;6.97;75.32;100740.41;6288805;28;20246;-74
2021/11/06 10:10:36;;;;;;;1.00;1.00;;;;;;;7.06;74.87;100737.34;6289086;28;20282;-74
2021/11/06 10:13:55;;;;;;;1.03;1.03;;;;;;;7.15;75.22;100724.47;6288951;28;20187;-74
2021/11/06 10:17:01;;;;;;;0.90;0.90;;;;;;;7.17;75.20;100739.53;6288763;28;20188;-74
2021/11/06 10:20:29;;;;;;;1.00;1.00;;;;;;;7.26;73.78;100738.38;6287403;28;20486;-74
2021/11/06 10:23:38;;;;;;;2.37;1.10;;;;;;;7.27;73.66;100745.44;6288484;28;20250;-74
2021/11/06 10:26:42;;;;;;;1.80;1.00;;;;;;;7.16;73.14;100743.28;6288358;28;20207;-74
2021/11/06 10:30:01;;;;;;;2.37;1.17;;;;;;;7.20;73.54;100750.00;6288317;28;20230;-74
2021/11/06 10:33:10;;;;;;;1.50;1.50;;;;;;;7.29;73.74;100746.09;6287892;28;20216;-74
2021/11/06 10:36:20;;;;;;;0.80;0.80;;;;;;;7.16;74.00;100754.16;6288265;28;20191;-74
2021/11/06 10:39:25;;;;;;;0.97;0.87;;;;;;;7.30;73.24;100745.06;6286915;28;20200;-74
2021/11/06 10:42:29;;;;;;;3.13;0.90;;;;;;;7.30;72.89;100745.06;6286840;28;20479;-74
2021/11/06 10:45:36;;;;;;;0.90;0.90;;;;;;;7.29;72.90;100753.41;6286596;28;20270;-74
2021/11/06 10:48:40;;;;;;;0.90;0.90;;;;;;;7.38;73.01;100744.91;6287317;28;20223;-74
2021/11/06 10:52:00;;;;;;;1.85;0.98;;;;;;;7.44;72.46;100752.28;6287121;28;20238;-74
2021/11/06 10:55:08;;;;;;;1.13;0.90;;;;;;;7.33;72.44;100763.66;6286543;28;20456;-74
2021/11/06 10:58:24;;;;;;;1.23;0.93;;;;;;;7.42;71.64;100764.38;6286918;28;20184;-74
2021/11/06 11:01:33;;;;;;;0.90;0.90;;;;;;;7.39;71.28;100771.03;6286409;28;20323;-74
2021/11/06 11:04:39;;;;;;;0.85;0.85;;;;;;;7.38;70.75;100769.34;6287452;28;20210;-74
2021/11/06 11:08:00;;;;;;;0.90;0.90;;;;;;;7.46;71.31;100777.34;6286510;28;20526;-74
2021/11/06 11:11:06;;;;;;;2.77;1.00;;;;;;;7.42;71.62;100765.19;6287636;28;20188;-74
2021/11/06 11:14:15;;;;;;;3.60;0.97;;;;;;;7.38;72.17;100753.06;6287468;28;20216;-73
2021/11/06 11:17:19;;;;;;;1.10;1.10;;;;;;;7.42;72.33;100765.19;6287747;28;20242;-74
2021/11/06 11:20:25;;;;;;;1.05;1.05;;;;;;;7.41;71.37;100752.66;6287360;28;20184;-74
2021/11/06 11:23:30;;;;;;;1.85;1.00;;;;;;;7.39;70.96;100762.88;6287282;28;20220;-74
2021/11/06 11:26:36;;;;;;;2.65;1.05;;;;;;;7.32;71.12;100753.84;6286241;28;20184;-74
2021/11/06 11:29:41;;;;;;;1.00;1.00;;;;;;;7.43;70.99;100756.00;6285961;28;20222;-74
2021/11/06 11:32:45;;;;;;;2.88;0.90;;;;;;;7.44;71.24;100768.56;6286986;28;20212;-74
2021/11/06 11:35:50;;;;;;;3.00;1.17;;;;;;;7.47;70.87;100762.72;6285897;28;20506;-74
2021/11/06 11:38:56;;;;;;;1.83;1.03;;;;;;;7.56;71.08;100761.53;6287343;28;20184;-75
2021/11/06 11:42:23;;;;;;;0.93;0.93;;;;;;;7.45;70.06;100759.34;6285886;28;20242;-74
2021/11/06 11:45:38;;;;;;;0.90;0.90;;;;;;;7.39;69.04;100765.59;6286822;28;20247;-74
2021/11/06 11:48:52;;;;;;;0.80;0.80;;;;;;;7.38;68.74;100763.91;6286960;28;20187;-74
2021/11/06 11:51:57;;;;;;;0.90;0.90;;;;;;;7.47;68.54;100762.72;6285692;28;20262;-74
2021/11/06 11:55:07;;;;;;;0.90;0.90;;;;;;;7.44;68.75;100768.56;6285973;28;20289;-74
2021/11/06 11:58:18;;;;;;;1.10;1.00;;;;;;;7.46;67.92;100787.34;6287160;28;20188;-74
2021/11/06 12:01:23;;;;;;;1.60;1.00;;;;;;;7.39;69.50;100776.47;6286812;28;20184;-74
2021/11/06 12:04:27;;;;;;;0.97;0.97;;;;;;;7.47;68.90;100773.56;6286501;28;20185;-74
2021/11/06 12:07:31;;;;;;;0.90;0.90;;;;;;;7.41;67.53;100779.81;6285679;28;20390;-74
2021/11/06 12:10:38;;;;;;;1.10;1.00;;;;;;;7.51;67.10;100785.72;6285644;28;20216;-74
2021/11/06 12:13:48;;;;;;;0.90;0.90;;;;;;;7.48;68.10;100791.53;6286869;28;20239;-74
2021/11/06 12:16:56;;;;;;;4.00;1.00;;;;;;;7.61;67.32;100784.50;6286839;28;20259;-77
2021/11/06 12:20:00;;;;;;;3.50;0.80;;;;;;;7.52;67.61;100773.81;6291518;28;20184;-75
2021/11/06 12:23:29;;;;;;;0.80;0.80;;;;;;;7.49;66.52;100785.09;6290288;28;20189;-75
2021/11/06 12:26:46;;;;;;;1.05;1.05;;;;;;;7.58;65.58;100792.03;6291673;28;20247;-75
2021/11/06 12:29:53;;;;;;;1.00;1.00;;;;;;;7.55;66.02;100792.41;6290716;28;20192;-74
2021/11/06 12:32:59;;;;;;;1.07;1.00;;;;;;;7.53;66.14;100797.22;6290752;28;20208;-74
2021/11/06 12:36:17;;;;;;;1.63;0.90;;;;;;;7.58;66.08;100797.47;6290075;28;20246;-74
2021/11/06 12:39:48;;;;;;;0.90;0.90;;;;;;;7.62;65.28;100791.63;6291386;28;20215;-74
2021/11/06 12:43:07;;;;;;;0.90;0.83;;;;;;;7.50;63.84;100808.47;6290838;28;20195;-74
2021/11/06 12:46:18;;;;;;;0.70;0.70;;;;;;;7.50;65.51;100808.47;6291176;28;20192;-75
2021/11/06 12:49:28;;;;;;;1.20;0.97;;;;;;;7.54;64.86;100815.19;6291149;28;20251;-74
2021/11/06 12:52:42;;;;;;;0.60;0.60;;;;;;;7.61;64.76;100817.09;6289591;28;20275;-74
2021/11/06 12:55:46;;;;;;;1.00;1.00;;;;;;;7.61;64.93;100817.09;6290668;28;20191;-74
2021/11/06 12:59:03;;;;;;;0.88;0.88;;;;;;;7.66;65.13;100825.50;6290667;28;20261;-74
2021/11/06 13:02:08;;;;;;;0.90;0.90;;;;;;;7.73;64.15;100831.81;6272924;28;20200;-74
2021/11/06 13:05:12;;;;;;;0.90;0.90;;;;;;;7.62;63.40;100832.38;6289720;28;20184;-74
2021/11/06 13:08:17;;;;;;;3.40;0.90;;;;;;;7.69;62.89;100830.53;6290990;28;20242;-75
2021/11/06 13:11:21;;;;;;;0.88;0.88;;;;;;;7.57;65.21;100828.34;6290453;28;20219;-75
2021/11/06 13:14:47;;;;;;;0.90;0.90;;;;;;;7.66;64.54;100825.50;6288950;28;20380;-74
2021/11/06 13:17:51;;;;;;;1.10;1.00;;;;;;;7.66;63.90;100831.75;6290066;28;20259;-74
2021/11/06 13:20:56;;;;;;;0.80;0.80;;;;;;;7.69;63.64;100830.53;6290304;28;20184;-74
2021/11/06 13:24:02;;;;;;;1.00;1.00;;;;;;;7.66;63.91;100830.91;6289601;28;20195;-74
2021/11/06 13:27:07;;;;;;;0.85;0.85;;;;;;;7.65;63.54;100829.25;6290015;28;20188;-74
2021/11/06 13:30:25;;;;;;;0.70;0.70;;;;;;;7.57;64.31;100822.91;6288657;28;20254;-75
2021/11/06 13:33:32;;;;;;;4.72;0.85;;;;;;;7.70;64.04;100826.78;6289505;28;20215;-74
2021/11/06 13:36:37;;;;;;;0.93;0.93;;;;;;;7.65;63.34;100835.53;6288995;28;20184;-74
2021/11/06 13:39:41;;;;;;;0.77;0.77;;;;;;;7.71;64.25;100831.16;6288436;28;20557;-74
2021/11/06 13:42:45;;;;;;;0.90;0.90;;;;;;;7.58;64.47;100829.19;6289426;28;20192;-74
2021/11/06 13:46:13;;;;;;;0.80;0.80;;;;;;;7.60;63.86;100831.72;6289517;28;20188;-74
2021/11/06 13:49:21;;;;;;;1.05;1.05;;;;;;;7.65;63.57;100835.53;6289087;28;20192;-74
2021/11/06 13:52:25;;;;;;;0.80;0.80;;;;;;;7.65;63.66;100829.25;6288289;28;20475;-74
2021/11/06 13:55:30;;;;;;;0.80;0.80;;;;;;;7.55;63.53;100830.44;6289418;28;20275;-74
2021/11/06 13:58:38;;;;;;;1.00;1.00;;;;;;;7.40;62.78;100829.69;6288703;28;20191;-74
2021/11/06 14:01:46;;;;;;;0.98;0.88;;;;;;;7.56;63.14;100832.13;6289135;28;20215;-74
2021/11/06 14:04:55;;;;;;;2.10;0.80;;;;;;;7.55;63.97;100852.16;6288900;28;20203;-74
2021/11/06 14:07:59;;;;;;;0.90;0.80;;;;;;;7.51;63.61;100845.44;6288492;28;20479;-74
2021/11/06 14:11:04;;;;;;;0.80;0.80;;;;;;;7.36;64.36;100844.69;6288785;28;20222;-74
2021/11/06 14:14:09;;;;;;;0.77;0.77;;;;;;;7.37;65.03;100849.06;6288915;28;20310;-74
2021/11/06 14:17:15;;;;;;;1.50;0.80;;;;;;;7.40;65.25;100843.25;6288688;28;20184;-74
2021/11/06 14:20:31;;;;;;;0.85;0.85;;;;;;;7.41;65.14;100850.38;6288856;28;20188;-74
2021/11/06 14:23:37;;;;;;;0.83;0.80;;;;;;;7.42;65.00;100841.19;6288821;28;20188;-74
2021/11/06 14:26:47;;;;;;;0.95;0.95;;;;;;;7.46;64.57;100847.91;6287349;28;20191;-74
2021/11/06 14:30:11;;;;;;;0.90;0.90;;;;;;;7.42;64.71;100841.19;6288760;28;20252;-74
2021/11/06 14:33:29;;;;;;;0.80;0.80;;;;;;;7.38;65.16;100853.47;6288555;28;20250;-74
2021/11/06 14:36:34;;;;;;;0.83;0.83;;;;;;;7.42;64.92;100854.75;6287686;28;20192;-74
2021/11/06 14:39:39;;;;;;;0.90;0.90;;;;;;;7.48;64.24;100864.84;6288420;28;20267;-74